Weather History for Waskish, MN

Change the Weather History Date:

Wednesday, September 5, 2012

  Actual Average (KBDE) Record (KBDE)
Temperature  
Mean Temperature 66 °F -  
Max Temperature 73 °F 75 °F 94 °F (1978)
Min Temperature 60 °F 48 °F 35 °F (1972)
Cooling Degree Days 2    
Growing Degree Days 16 (Base 50)    
Moisture  
Dew Point 51 °F    
Average Humidity 57    
Maximum Humidity 72    
Minimum Humidity 43    
Precipitation  
Precipitation 0.00 in - - ()
Sea Level Pressure  
Sea Level Pressure 29.81 in    
Wind  
Wind Speed 9 mph (West)    
Max Wind Speed 16 mph    
Max Gust Speed 22 mph    
Visibility 10 miles    
Events Rain    
Averages and records for this station are not official NWS values.
T = Trace of Precipitation, MM = Missing Value Source: NWS Daily Summary

Daily Weather History Graph

Daily Weather History Graph

Search for Another Location

Airport:

Trip Planner

Search our weather history database for the weather conditions in past years. The results will help you decide how hot, cold, wet, or windy it might be!

Date:

Astronomy

Sep. 05, 2012 Rise Set
Actual Time 6:42 AM CDT 7:50 PM CDT
Civil Twilight 6:10 AM CDT 8:21 PM CDT
Nautical Twilight 5:31 AM CDT 9:00 PM CDT
Astronomical Twilight 4:50 AM CDT 9:41 PM CDT
Moon 9:50 PM CDT (9/5) 12:15 PM CDT (9/5)
Length of Visible Light 14h 11m
Length of Day
13h 08m
Waning Gibbous, 76% of the Moon is Illuminated
Sep 5
Waning Gibbous
Sep 8
Last Quarter
Sep 15
New
Sep 22
First Quarter
Sep 29
Full

Hourly Weather History & Observations

Time (CDT) Temp. Dew Point Humidity Pressure Visibility Wind Dir Wind Speed Gust Speed Precip Events Conditions
12:15 AM 66.2 °F 51.8 °F 60% 29.78 in 10.0 mi NW 6.9 mph - N/A   Clear
12:35 AM 66.2 °F 51.8 °F 60% 29.77 in 10.0 mi NW 6.9 mph 16.1 mph N/A   Clear
12:55 AM 66.2 °F 51.8 °F 60% 29.77 in 10.0 mi NW 8.1 mph - N/A   Clear
1:15 AM 64.4 °F 51.8 °F 64% 29.77 in 10.0 mi NW 8.1 mph - N/A   Clear
1:35 AM 64.4 °F 51.8 °F 64% 29.78 in 10.0 mi NW 5.8 mph - N/A   Mostly Cloudy
1:55 AM 64.4 °F 51.8 °F 64% 29.79 in 10.0 mi WNW 5.8 mph - N/A   Scattered Clouds
2:15 AM 64.4 °F 53.6 °F 68% 29.80 in 10.0 mi WSW 5.8 mph - N/A   Clear
2:35 AM 64.4 °F 53.6 °F 68% 29.82 in 10.0 mi SW 8.1 mph - N/A   Clear
2:55 AM 64.4 °F 53.6 °F 68% 29.82 in 10.0 mi SW 6.9 mph - N/A   Clear
3:15 AM 66.2 °F 53.6 °F 64% 29.83 in 10.0 mi SW 9.2 mph - N/A   Clear
3:35 AM 66.2 °F 53.6 °F 64% 29.82 in 10.0 mi SW 6.9 mph - N/A   Mostly Cloudy
3:55 AM 64.4 °F 53.6 °F 68% 29.81 in 10.0 mi WSW 4.6 mph - N/A   Mostly Cloudy
4:15 AM 66.2 °F 51.8 °F 60% 29.81 in 10.0 mi West 6.9 mph - N/A Rain Light Rain
4:35 AM 64.4 °F 48.2 °F 56% 29.81 in 10.0 mi West 11.5 mph - N/A Rain Light Rain
4:55 AM 62.6 °F 48.2 °F 59% 29.81 in 10.0 mi West 10.4 mph - N/A Rain Light Rain
5:15 AM 64.4 °F 48.2 °F 56% 29.81 in 10.0 mi West 10.4 mph - N/A   Scattered Clouds
5:34 AM 64.4 °F 48.2 °F 56% 29.80 in 10.0 mi West 9.2 mph - N/A   Scattered Clouds
5:55 AM 64.4 °F 46.4 °F 52% 29.81 in 10.0 mi West 9.2 mph - N/A   Clear
6:15 AM 62.6 °F 48.2 °F 59% 29.82 in 10.0 mi West 9.2 mph - N/A   Clear
6:34 AM 62.6 °F 46.4 °F 55% 29.81 in 10.0 mi West 8.1 mph - N/A   Clear
6:55 AM 60.8 °F 48.2 °F 63% 29.82 in 10.0 mi WSW 10.4 mph - N/A   Clear
7:15 AM 60.8 °F 48.2 °F 63% 29.82 in 10.0 mi WSW 10.4 mph - N/A   Clear
7:34 AM 62.6 °F 48.2 °F 59% 29.81 in 10.0 mi West 11.5 mph - N/A   Clear
7:55 AM 62.6 °F 48.2 °F 59% 29.82 in 10.0 mi West 10.4 mph 17.3 mph N/A   Clear
8:15 AM 60.8 °F 48.2 °F 63% 29.83 in 10.0 mi West 8.1 mph 17.3 mph N/A   Clear
8:34 AM 60.8 °F 48.2 °F 63% 29.82 in 10.0 mi West 10.4 mph - N/A   Clear
8:55 AM 62.6 °F 48.2 °F 59% 29.82 in 10.0 mi West 11.5 mph - N/A   Clear
9:15 AM 62.6 °F 48.2 °F 59% 29.83 in 10.0 mi West 10.4 mph - N/A   Clear
9:35 AM 64.4 °F 48.2 °F 56% 29.83 in 10.0 mi West 8.1 mph - N/A   Clear
9:55 AM 66.2 °F 50.0 °F 56% 29.83 in 10.0 mi West 8.1 mph - N/A   Clear
10:15 AM 66.2 °F 50.0 °F 56% 29.82 in 10.0 mi WSW 6.9 mph - N/A   Clear
10:35 AM 69.8 °F 50.0 °F 49% 29.82 in 10.0 mi West 8.1 mph - N/A   Clear
10:55 AM 69.8 °F 51.8 °F 53% 29.81 in 10.0 mi West 9.2 mph 17.3 mph N/A   Clear
11:15 AM 69.8 °F 51.8 °F 53% 29.81 in 10.0 mi WSW 9.2 mph - N/A   Clear
11:35 AM 71.6 °F 51.8 °F 50% 29.81 in 10.0 mi SW 15.0 mph - N/A   Clear
11:55 AM 69.8 °F 53.6 °F 56% 29.81 in 10.0 mi SW 12.7 mph - N/A   Mostly Cloudy
12:15 PM 69.8 °F 51.8 °F 53% 29.80 in 10.0 mi WSW 16.1 mph 21.9 mph N/A   Mostly Cloudy
12:35 PM 71.6 °F 51.8 °F 50% 29.80 in 10.0 mi West 13.8 mph 19.6 mph N/A   Scattered Clouds
12:55 PM 71.6 °F 51.8 °F 50% 29.80 in 10.0 mi WSW 16.1 mph 20.7 mph N/A   Clear
1:14 PM 71.6 °F 51.8 °F 50% 29.80 in 10.0 mi West 15.0 mph - N/A   Clear
1:35 PM 73.4 °F 51.8 °F 47% 29.80 in 10.0 mi WSW 15.0 mph 20.7 mph N/A   Scattered Clouds
1:55 PM 71.6 °F 51.8 °F 50% 29.80 in 10.0 mi West 13.8 mph - N/A   Scattered Clouds
2:14 PM 71.6 °F 51.8 °F 50% 29.80 in 10.0 mi WSW 15.0 mph 18.4 mph N/A   Scattered Clouds
2:35 PM 71.6 °F 51.8 °F 50% 29.80 in 10.0 mi West 9.2 mph 17.3 mph N/A   Mostly Cloudy
2:55 PM 71.6 °F 51.8 °F 50% 29.81 in 10.0 mi West 12.7 mph - N/A   Mostly Cloudy
3:14 PM 71.6 °F 51.8 °F 50% 29.80 in 10.0 mi West 11.5 mph - N/A   Mostly Cloudy
3:35 PM 71.6 °F 48.2 °F 43% 29.80 in 10.0 mi WSW 9.2 mph - N/A   Overcast
3:55 PM 71.6 °F 48.2 °F 43% 29.80 in 10.0 mi SW 10.4 mph - N/A   Mostly Cloudy
4:14 PM 69.8 °F 50.0 °F 49% 29.80 in 10.0 mi WSW 9.2 mph - N/A   Overcast
4:35 PM 69.8 °F 48.2 °F 46% 29.80 in 10.0 mi WSW 9.2 mph - N/A   Overcast
4:55 PM 69.8 °F 51.8 °F 53% 29.81 in 10.0 mi West 15.0 mph 19.6 mph N/A   Overcast
5:15 PM 71.6 °F 51.8 °F 50% 29.81 in 10.0 mi West 9.2 mph 17.3 mph N/A   Mostly Cloudy
5:35 PM 71.6 °F 51.8 °F 50% 29.81 in 10.0 mi West 10.4 mph - N/A   Scattered Clouds
5:55 PM 69.8 °F 51.8 °F 53% 29.81 in 10.0 mi WSW 8.1 mph - N/A   Scattered Clouds
6:15 PM 68.0 °F 50.0 °F 52% 29.81 in 10.0 mi West 6.9 mph - N/A   Scattered Clouds
6:35 PM 69.8 °F 50.0 °F 49% 29.81 in 10.0 mi West 5.8 mph - N/A   Scattered Clouds
6:55 PM 69.8 °F 51.8 °F 53% 29.81 in 10.0 mi West 12.7 mph - N/A   Mostly Cloudy
7:15 PM 69.8 °F 51.8 °F 53% 29.81 in 10.0 mi West 11.5 mph - N/A   Scattered Clouds
7:35 PM 68.0 °F 51.8 °F 56% 29.81 in 10.0 mi West 8.1 mph - N/A   Clear
7:55 PM 66.2 °F 50.0 °F 56% 29.81 in 10.0 mi West 4.6 mph - N/A   Clear
8:15 PM 66.2 °F 51.8 °F 60% 29.82 in 10.0 mi West 5.8 mph - N/A   Clear
8:35 PM 66.2 °F 51.8 °F 60% 29.82 in 10.0 mi WNW 6.9 mph - N/A   Clear
8:55 PM 64.4 °F 51.8 °F 64% 29.83 in 10.0 mi WNW 3.5 mph - N/A   Clear
9:15 PM 64.4 °F 51.8 °F 64% 29.83 in 10.0 mi West 4.6 mph - N/A   Mostly Cloudy
9:35 PM 64.4 °F 51.8 °F 64% 29.84 in 10.0 mi WNW 4.6 mph - N/A   Mostly Cloudy
9:54 PM 64.4 °F 51.8 °F 64% 29.84 in 10.0 mi West 5.8 mph - N/A   Scattered Clouds
10:15 PM 64.4 °F 51.8 °F 64% 29.84 in 10.0 mi West 8.1 mph - N/A   Scattered Clouds
10:35 PM 64.4 °F 51.8 °F 64% 29.84 in 10.0 mi West 4.6 mph - N/A   Mostly Cloudy
10:54 PM 64.4 °F 51.8 °F 64% 29.84 in 10.0 mi West 8.1 mph - N/A   Overcast
11:15 PM 62.6 °F 51.8 °F 68% 29.84 in 10.0 mi West 5.8 mph - N/A   Scattered Clouds
11:34 PM 62.6 °F 53.6 °F 72% 29.84 in 10.0 mi West 5.8 mph - N/A   Scattered Clouds
11:55 PM 62.6 °F 53.6 °F 72% 29.84 in 10.0 mi West 4.6 mph - N/A   Overcast